Time;durP1;ratioP1;P1;durP2;ratioP2;P2;SDS_P1;SDS_P2;PMS_P1;PMS_P2;Temp;Humidity;BMP_temperature;BMP_pressure;BME280_temperature;BME280_humidity;BME280_pressure;Samples;Min_cycle;Max_cycle;Signal;HPM_P1;HPM_P2
2023/02/22 00:02:09;;;;;;;41.90;29.63;;;;;;;;;;4999288;28;20299;-78
2023/02/22 00:04:18;;;;;;;39.33;28.20;;;;;;;;;;4997628;28;20555;-77
2023/02/22 00:06:44;;;;;;;38.13;28.30;;;;;;;;;;4998984;28;20890;-77
2023/02/22 00:09:10;;;;;;;38.77;27.07;;;;;;;;;;4992952;28;20437;-77
2023/02/22 00:11:37;;;;;;;36.77;25.67;;;;;;;;;;4996884;28;21708;-78
2023/02/22 00:14:02;;;;;;;34.80;25.00;;;;;;;;;;4994784;28;20244;-77
2023/02/22 00:16:29;;;;;;;38.13;27.07;;;;;;;;;;4999375;28;20432;-77
2023/02/22 00:18:54;;;;;;;36.73;24.77;;;;;;;;;;5000337;28;20533;-77
2023/02/22 00:21:20;;;;;;;38.30;26.23;;;;;;;;;;5005487;28;20467;-78
2023/02/22 00:23:46;;;;;;;35.30;24.50;;;;;;;;;;5006868;28;20180;-77
2023/02/22 00:26:19;;;;;;;39.17;25.60;;;;;;;;;;4998613;28;20232;-77
2023/02/22 00:28:45;;;;;;;39.47;25.10;;;;;;;;;;5003714;28;20478;-78
2023/02/22 00:31:11;;;;;;;37.83;25.10;;;;;;;;;;5000672;28;20440;-77
2023/02/22 00:33:37;;;;;;;41.97;26.10;;;;;;;;;;5002497;28;20498;-78
2023/02/22 00:36:02;;;;;;;42.23;27.07;;;;;;;;;;5002268;28;20339;-78
2023/02/22 00:38:28;;;;;;;39.10;24.93;;;;;;;;;;5005192;28;20968;-78
2023/02/22 00:40:54;;;;;;;41.77;25.67;;;;;;;;;;5000433;28;20191;-77
2023/02/22 00:43:19;;;;;;;37.60;24.40;;;;;;;;;;5006387;28;20191;-77
2023/02/22 00:45:44;;;;;;;48.40;27.17;;;;;;;;;;5003108;28;20439;-78
2023/02/22 00:48:10;;;;;;;42.33;26.97;;;;;;;;;;5004097;28;20641;-77
2023/02/22 00:50:35;;;;;;;38.87;24.00;;;;;;;;;;5004382;28;20181;-78
2023/02/22 00:53:02;;;;;;;43.27;27.93;;;;;;;;;;5003900;28;20653;-78
2023/02/22 00:55:32;;;;;;;47.37;26.27;;;;;;;;;;5011125;28;20195;-78
2023/02/22 00:57:57;;;;;;;42.43;25.57;;;;;;;;;;5004341;28;20455;-78
2023/02/22 01:00:27;;;;;;;39.17;23.57;;;;;;;;;;5000508;28;20439;-77
2023/02/22 01:02:53;;;;;;;44.67;25.23;;;;;;;;;;5003900;28;20189;-77
2023/02/22 01:05:21;;;;;;;41.37;26.90;;;;;;;;;;5002435;28;20432;-77
2023/02/22 01:07:47;;;;;;;40.70;25.30;;;;;;;;;;4998356;28;20618;-77
2023/02/22 01:10:13;;;;;;;44.00;25.90;;;;;;;;;;5003555;28;20508;-77
2023/02/22 01:12:38;;;;;;;39.70;25.53;;;;;;;;;;5000644;28;20861;-78
2023/02/22 01:15:05;;;;;;;40.70;24.60;;;;;;;;;;4997863;28;20991;-77
2023/02/22 01:17:30;;;;;;;45.83;25.93;;;;;;;;;;4998088;28;20220;-77
2023/02/22 01:19:55;;;;;;;39.87;26.13;;;;;;;;;;4998912;28;20857;-77
2023/02/22 01:22:21;;;;;;;42.57;26.33;;;;;;;;;;5007778;28;20188;-77
2023/02/22 01:24:47;;;;;;;41.50;25.83;;;;;;;;;;5000611;28;20199;-77
2023/02/22 01:27:12;;;;;;;43.37;25.50;;;;;;;;;;5003752;28;20225;-78
2023/02/22 01:29:38;;;;;;;49.03;27.73;;;;;;;;;;5001522;28;20177;-78
2023/02/22 01:32:05;;;;;;;49.23;27.17;;;;;;;;;;5000047;28;20240;-77
2023/02/22 01:34:31;;;;;;;40.73;26.33;;;;;;;;;;5006055;28;20442;-77
2023/02/22 01:36:57;;;;;;;42.20;27.57;;;;;;;;;;5005257;28;20464;-78
2023/02/22 01:39:22;;;;;;;41.87;26.07;;;;;;;;;;5004111;28;20439;-78
2023/02/22 01:41:47;;;;;;;47.27;29.43;;;;;;;;;;5009193;28;20223;-78
2023/02/22 01:44:19;;;;;;;41.60;25.60;;;;;;;;;;5005734;28;20208;-77
2023/02/22 01:46:44;;;;;;;45.57;28.83;;;;;;;;;;4998385;28;20201;-76
2023/02/22 01:49:10;;;;;;;45.80;28.10;;;;;;;;;;5003429;28;20478;-76
2023/02/22 01:51:37;;;;;;;41.50;26.10;;;;;;;;;;4998899;28;20657;-76
2023/02/22 01:54:04;;;;;;;43.80;26.27;;;;;;;;;;5013813;28;20177;-76
2023/02/22 01:56:31;;;;;;;48.63;28.97;;;;;;;;;;5002208;28;20431;-77
2023/02/22 01:58:59;;;;;;;44.97;26.73;;;;;;;;;;5001889;28;20471;-76
2023/02/22 02:01:25;;;;;;;41.17;26.30;;;;;;;;;;5007147;28;20436;-77
2023/02/22 02:03:51;;;;;;;41.80;26.03;;;;;;;;;;5006990;28;20855;-76
2023/02/22 02:06:17;;;;;;;41.20;25.03;;;;;;;;;;5014954;28;20193;-76
2023/02/22 02:08:46;;;;;;;38.83;24.40;;;;;;;;;;5001364;28;20478;-76
2023/02/22 02:11:11;;;;;;;32.90;22.70;;;;;;;;;;4997783;28;20443;-77
2023/02/22 02:13:37;;;;;;;38.03;23.80;;;;;;;;;;5001297;28;20913;-76
2023/02/22 02:16:02;;;;;;;33.10;22.27;;;;;;;;;;5002592;28;20177;-76
2023/02/22 02:18:28;;;;;;;35.10;22.87;;;;;;;;;;4998199;28;20200;-77
2023/02/22 02:20:56;;;;;;;33.40;22.63;;;;;;;;;;4998578;28;20654;-76
2023/02/22 02:23:40;;;;;;;33.47;22.73;;;;;;;;;;5003081;28;20209;-77
2023/02/22 02:26:14;;;;;;;33.73;21.83;;;;;;;;;;5001385;28;20444;-76
2023/02/22 02:28:42;;;;;;;32.93;21.87;;;;;;;;;;5001093;28;20506;-76
2023/02/22 02:31:10;;;;;;;33.77;22.90;;;;;;;;;;5002070;28;20466;-76
2023/02/22 02:33:35;;;;;;;29.50;20.43;;;;;;;;;;4998265;28;20516;-76
2023/02/22 02:36:20;;;;;;;30.13;21.87;;;;;;;;;;4998827;28;20443;-76
2023/02/22 02:38:48;;;;;;;31.20;22.37;;;;;;;;;;4998372;28;21030;-76
2023/02/22 02:41:22;;;;;;;29.10;20.63;;;;;;;;;;5000318;28;20461;-76
2023/02/22 02:44:08;;;;;;;32.70;20.30;;;;;;;;;;4997329;28;20955;-76
2023/02/22 02:46:35;;;;;;;31.27;22.30;;;;;;;;;;4993907;28;20436;-77
2023/02/22 02:49:12;;;;;;;30.50;21.60;;;;;;;;;;5001805;28;20478;-76
2023/02/22 02:51:42;;;;;;;28.60;20.77;;;;;;;;;;4998289;28;20438;-76
2023/02/22 02:54:09;;;;;;;31.67;21.27;;;;;;;;;;4997348;28;20431;-76
2023/02/22 02:56:34;;;;;;;27.33;20.47;;;;;;;;;;5001276;28;20867;-76
2023/02/22 02:58:59;;;;;;;33.10;21.23;;;;;;;;;;4996600;28;20535;-76
2023/02/22 03:01:42;;;;;;;36.13;21.53;;;;;;;;;;5004333;28;20220;-76
2023/02/22 03:04:26;;;;;;;29.43;22.40;;;;;;;;;;5003887;28;20231;-77
2023/02/22 03:07:01;;;;;;;28.43;20.33;;;;;;;;;;5002313;28;20463;-76
2023/02/22 03:09:38;;;;;;;30.27;21.30;;;;;;;;;;5002610;28;20471;-76
2023/02/22 03:12:13;;;;;;;28.20;20.60;;;;;;;;;;5001017;28;20442;-76
2023/02/22 03:14:39;;;;;;;29.13;19.83;;;;;;;;;;5002810;28;20428;-76
2023/02/22 03:17:14;;;;;;;29.63;19.70;;;;;;;;;;5000620;28;20830;-76
2023/02/22 03:19:57;;;;;;;29.57;20.67;;;;;;;;;;5001421;28;20658;-78
2023/02/22 03:22:27;;;;;;;26.53;19.77;;;;;;;;;;5006856;28;20897;-78
2023/02/22 03:25:07;;;;;;;27.10;20.47;;;;;;;;;;5006483;28;20558;-77
2023/02/22 03:27:52;;;;;;;30.37;20.97;;;;;;;;;;5004565;28;20964;-77
2023/02/22 03:30:17;;;;;;;28.37;20.97;;;;;;;;;;5006475;28;20454;-77
2023/02/22 03:32:45;;;;;;;26.80;20.60;;;;;;;;;;5005328;28;20441;-77
2023/02/22 03:35:15;;;;;;;27.30;19.70;;;;;;;;;;5005500;28;20601;-77
2023/02/22 03:37:42;;;;;;;31.67;21.07;;;;;;;;;;4996911;28;20992;-77
2023/02/22 03:40:15;;;;;;;26.07;20.07;;;;;;;;;;5004028;28;20446;-77
2023/02/22 03:42:49;;;;;;;28.30;21.43;;;;;;;;;;5002334;28;21350;-78
2023/02/22 03:45:16;;;;;;;28.33;20.50;;;;;;;;;;5005365;28;20474;-77
2023/02/22 03:47:49;;;;;;;27.20;19.97;;;;;;;;;;5005282;28;20486;-77
2023/02/22 03:50:20;;;;;;;28.60;19.60;;;;;;;;;;5015300;28;20474;-78
2023/02/22 03:52:46;;;;;;;27.73;20.87;;;;;;;;;;5001319;28;20437;-77
2023/02/22 03:55:12;;;;;;;25.80;19.47;;;;;;;;;;5001048;28;20436;-77
2023/02/22 03:57:39;;;;;;;30.00;20.67;;;;;;;;;;5006042;28;20453;-77
2023/02/22 04:00:06;;;;;;;31.23;21.83;;;;;;;;;;5001659;28;20444;-77
2023/02/22 04:02:31;;;;;;;29.30;20.50;;;;;;;;;;4997412;28;20438;-77
2023/02/22 04:04:57;;;;;;;29.80;21.80;;;;;;;;;;5000820;28;20532;-77
2023/02/22 04:07:22;;;;;;;27.90;20.03;;;;;;;;;;5006512;28;20220;-78
2023/02/22 04:09:47;;;;;;;26.60;21.43;;;;;;;;;;5000945;28;20181;-77
2023/02/22 04:12:12;;;;;;;30.63;21.77;;;;;;;;;;5000540;28;20189;-77
2023/02/22 04:14:38;;;;;;;26.33;20.27;;;;;;;;;;5003252;28;20205;-77
2023/02/22 04:17:03;;;;;;;30.30;21.40;;;;;;;;;;5002218;28;20782;-78
2023/02/22 04:19:28;;;;;;;30.40;20.43;;;;;;;;;;4999511;28;20214;-77
2023/02/22 04:21:54;;;;;;;31.17;21.43;;;;;;;;;;5001168;28;20268;-77
2023/02/22 04:24:19;;;;;;;29.80;21.73;;;;;;;;;;4995437;28;20279;-78
2023/02/22 04:26:45;;;;;;;29.90;22.10;;;;;;;;;;5000168;28;20225;-77
2023/02/22 04:29:10;;;;;;;28.83;20.63;;;;;;;;;;5001641;28;20208;-77
2023/02/22 04:31:35;;;;;;;30.60;22.33;;;;;;;;;;5003230;28;20173;-77
2023/02/22 04:34:02;;;;;;;33.03;22.80;;;;;;;;;;5000774;28;20271;-77
2023/02/22 04:36:27;;;;;;;31.33;22.30;;;;;;;;;;5000463;28;20180;-77
2023/02/22 04:38:53;;;;;;;30.00;21.33;;;;;;;;;;5000120;28;20502;-77
2023/02/22 04:41:18;;;;;;;33.90;24.07;;;;;;;;;;5000891;28;20192;-78
2023/02/22 04:43:44;;;;;;;35.80;23.97;;;;;;;;;;5001383;28;20239;-77
2023/02/22 04:46:09;;;;;;;32.93;22.93;;;;;;;;;;5000861;28;20181;-77
2023/02/22 04:48:34;;;;;;;29.70;21.30;;;;;;;;;;5004370;28;20674;-78
2023/02/22 04:51:00;;;;;;;32.33;22.43;;;;;;;;;;5007605;28;20173;-77
2023/02/22 04:53:25;;;;;;;37.20;23.93;;;;;;;;;;5006695;28;20619;-78
2023/02/22 04:55:51;;;;;;;32.30;22.40;;;;;;;;;;5004947;28;20177;-77
2023/02/22 04:58:16;;;;;;;34.30;23.67;;;;;;;;;;5005178;28;20213;-77
2023/02/22 05:00:41;;;;;;;30.73;21.80;;;;;;;;;;5005468;28;20652;-78
2023/02/22 05:03:07;;;;;;;34.47;23.63;;;;;;;;;;5000437;28;20220;-77
2023/02/22 05:05:33;;;;;;;34.47;22.70;;;;;;;;;;5005135;28;20216;-77
2023/02/22 05:07:58;;;;;;;36.50;24.57;;;;;;;;;;5000525;28;20538;-77
2023/02/22 05:10:23;;;;;;;32.97;23.60;;;;;;;;;;4999844;28;20623;-77
2023/02/22 05:12:49;;;;;;;33.73;22.47;;;;;;;;;;5003527;28;20197;-78
2023/02/22 05:15:15;;;;;;;29.83;21.50;;;;;;;;;;5001374;28;20566;-77
2023/02/22 05:17:40;;;;;;;29.93;21.17;;;;;;;;;;5000330;28;20208;-76
2023/02/22 05:20:07;;;;;;;30.50;21.10;;;;;;;;;;5000779;28;20513;-77
2023/02/22 05:22:32;;;;;;;28.97;21.07;;;;;;;;;;5002182;28;20185;-78
2023/02/22 05:24:58;;;;;;;29.77;20.40;;;;;;;;;;5000473;28;20945;-78
2023/02/22 05:27:23;;;;;;;24.90;18.27;;;;;;;;;;5003877;28;20209;-77
2023/02/22 05:29:48;;;;;;;25.47;18.00;;;;;;;;;;5004336;28;20228;-77
2023/02/22 05:32:14;;;;;;;33.20;19.83;;;;;;;;;;4998058;28;20231;-77
2023/02/22 05:34:39;;;;;;;30.67;20.73;;;;;;;;;;5003367;28;20919;-77
2023/02/22 05:37:04;;;;;;;25.30;18.30;;;;;;;;;;5000584;28;20205;-77
2023/02/22 05:39:30;;;;;;;27.73;20.40;;;;;;;;;;4996546;28;20177;-78
2023/02/22 05:41:56;;;;;;;26.30;18.50;;;;;;;;;;5000997;28;20653;-77
2023/02/22 05:44:21;;;;;;;28.50;18.80;;;;;;;;;;5004151;28;20180;-77
2023/02/22 05:46:46;;;;;;;28.33;20.80;;;;;;;;;;5001317;28;20247;-77
2023/02/22 05:49:12;;;;;;;27.47;19.70;;;;;;;;;;5001438;28;20701;-76
2023/02/22 05:51:37;;;;;;;28.43;20.23;;;;;;;;;;4998706;28;20296;-76
2023/02/22 05:54:02;;;;;;;27.77;19.77;;;;;;;;;;4998073;28;20638;-77
2023/02/22 05:56:29;;;;;;;22.57;18.00;;;;;;;;;;4999035;28;20209;-76
2023/02/22 05:58:54;;;;;;;25.40;19.03;;;;;;;;;;4996912;28;20188;-79
2023/02/22 06:01:20;;;;;;;24.33;18.27;;;;;;;;;;4997204;28;20436;-77
2023/02/22 06:03:46;;;;;;;28.87;18.90;;;;;;;;;;5004000;28;20185;-78
2023/02/22 06:06:11;;;;;;;26.13;17.93;;;;;;;;;;5004461;28;20190;-78
2023/02/22 06:08:37;;;;;;;23.10;17.07;;;;;;;;;;5003245;28;20517;-78
2023/02/22 06:11:02;;;;;;;23.30;17.87;;;;;;;;;;4999500;28;20211;-77
2023/02/22 06:13:27;;;;;;;25.50;17.43;;;;;;;;;;4992968;28;20193;-78
2023/02/22 06:15:53;;;;;;;27.20;17.80;;;;;;;;;;4992517;28;20177;-77
2023/02/22 06:18:18;;;;;;;23.53;17.67;;;;;;;;;;4998479;28;21030;-78
2023/02/22 06:20:43;;;;;;;25.83;16.27;;;;;;;;;;4990575;28;20652;-78
2023/02/22 06:23:09;;;;;;;20.93;16.07;;;;;;;;;;4986440;28;20178;-77
2023/02/22 06:25:35;;;;;;;24.83;18.13;;;;;;;;;;4995135;28;20201;-77
2023/02/22 06:28:00;;;;;;;22.30;16.90;;;;;;;;;;5001359;28;20233;-77
2023/02/22 06:30:27;;;;;;;21.90;16.43;;;;;;;;;;4999758;28;20534;-77
2023/02/22 06:32:52;;;;;;;22.43;17.10;;;;;;;;;;4996424;28;20185;-78
2023/02/22 06:35:18;;;;;;;24.10;17.80;;;;;;;;;;5006241;28;20439;-77
2023/02/22 06:37:43;;;;;;;23.30;16.87;;;;;;;;;;5004295;23;20229;-67
2023/02/22 06:40:10;;;;;;;21.23;17.43;;;;;;;;;;5005374;28;20249;-68
2023/02/22 06:42:35;;;;;;;22.03;16.40;;;;;;;;;;5003021;28;20169;-68
2023/02/22 06:45:00;;;;;;;25.03;19.03;;;;;;;;;;4990151;28;21021;-68
2023/02/22 06:47:26;;;;;;;24.77;18.47;;;;;;;;;;4977153;28;20221;-68
2023/02/22 06:49:52;;;;;;;22.80;17.67;;;;;;;;;;4979764;28;20185;-68
2023/02/22 06:52:17;;;;;;;22.20;17.03;;;;;;;;;;4981556;28;20212;-68
2023/02/22 06:54:42;;;;;;;22.67;16.93;;;;;;;;;;4976341;28;20476;-68
2023/02/22 06:57:09;;;;;;;23.70;17.13;;;;;;;;;;4976886;28;20186;-68
2023/02/22 06:59:34;;;;;;;22.93;17.67;;;;;;;;;;4972332;28;20604;-68
2023/02/22 07:01:59;;;;;;;22.60;17.30;;;;;;;;;;4977859;28;20975;-68
2023/02/22 07:04:25;;;;;;;20.23;15.37;;;;;;;;;;4986687;28;20754;-68
2023/02/22 07:06:50;;;;;;;22.93;16.80;;;;;;;;;;4980654;28;20182;-68
2023/02/22 07:09:16;;;;;;;19.83;15.90;;;;;;;;;;4975555;28;20212;-68
2023/02/22 07:11:44;;;;;;;20.13;16.27;;;;;;;;;;4982137;28;20645;-68
2023/02/22 07:14:09;;;;;;;23.90;17.67;;;;;;;;;;4981229;28;20198;-68
2023/02/22 07:16:34;;;;;;;21.60;15.90;;;;;;;;;;4978518;28;20436;-68
2023/02/22 07:19:00;;;;;;;21.93;16.83;;;;;;;;;;4981355;28;20193;-68
2023/02/22 07:21:26;;;;;;;24.87;17.50;;;;;;;;;;4979028;28;21267;-68
2023/02/22 07:23:52;;;;;;;23.67;18.40;;;;;;;;;;4979405;28;20196;-68
2023/02/22 07:26:18;;;;;;;24.17;17.70;;;;;;;;;;4974109;28;20518;-68
2023/02/22 07:28:43;;;;;;;23.23;16.37;;;;;;;;;;4974457;28;20484;-68
2023/02/22 07:31:09;;;;;;;21.40;16.70;;;;;;;;;;4972373;28;20174;-68
2023/02/22 07:33:34;;;;;;;24.83;17.90;;;;;;;;;;4979898;28;20734;-68
2023/02/22 07:35:59;;;;;;;24.00;17.30;;;;;;;;;;4981840;28;20198;-68
2023/02/22 07:38:24;;;;;;;21.97;16.40;;;;;;;;;;4986382;28;20201;-68
2023/02/22 07:40:50;;;;;;;21.40;16.60;;;;;;;;;;4975202;28;20186;-68
2023/02/22 07:43:19;;;;;;;23.63;17.50;;;;;;;;;;4978919;28;20198;-68
2023/02/22 07:45:45;;;;;;;25.43;19.43;;;;;;;;;;4972753;28;20210;-68
2023/02/22 07:48:14;;;;;;;25.13;19.17;;;;;;;;;;4977702;28;20885;-68
2023/02/22 07:50:40;;;;;;;27.90;19.80;;;;;;;;;;4975876;28;20428;-68
2023/02/22 07:53:09;;;;;;;26.63;19.00;;;;;;;;;;4978896;28;20445;-68
2023/02/22 07:55:35;;;;;;;26.40;20.30;;;;;;;;;;4979052;28;20225;-69
2023/02/22 07:58:02;;;;;;;32.33;23.87;;;;;;;;;;4977685;28;20941;-68
2023/02/22 08:00:29;;;;;;;33.03;21.47;;;;;;;;;;4980858;28;20190;-68
2023/02/22 08:02:55;;;;;;;29.57;20.93;;;;;;;;;;4973964;28;20491;-68
2023/02/22 08:05:22;;;;;;;29.30;20.80;;;;;;;;;;4977979;28;21120;-68
2023/02/22 08:07:47;;;;;;;30.40;20.40;;;;;;;;;;4973043;28;20624;-67
2023/02/22 08:10:13;;;;;;;27.40;21.00;;;;;;;;;;4977794;28;20433;-68
2023/02/22 08:12:39;;;;;;;29.00;19.27;;;;;;;;;;4975206;28;20214;-68
2023/02/22 08:15:04;;;;;;;25.23;18.80;;;;;;;;;;4975382;28;20993;-68
2023/02/22 08:17:30;;;;;;;23.10;18.20;;;;;;;;;;4971711;28;20671;-69
2023/02/22 08:19:55;;;;;;;24.20;17.77;;;;;;;;;;4971352;28;20190;-68
2023/02/22 08:22:21;;;;;;;21.93;16.23;;;;;;;;;;4978770;28;20565;-68
2023/02/22 08:24:46;;;;;;;22.57;16.63;;;;;;;;;;4976700;28;20994;-68
2023/02/22 08:27:11;;;;;;;24.07;17.43;;;;;;;;;;4978857;28;20194;-68
2023/02/22 08:29:37;;;;;;;22.93;16.87;;;;;;;;;;4975948;28;20189;-68
2023/02/22 08:32:02;;;;;;;28.97;18.97;;;;;;;;;;4977904;28;20177;-68
2023/02/22 08:34:27;;;;;;;26.23;18.50;;;;;;;;;;4973875;28;20576;-68
2023/02/22 08:36:53;;;;;;;23.43;18.37;;;;;;;;;;4977159;28;20619;-68
2023/02/22 08:39:18;;;;;;;25.13;19.63;;;;;;;;;;4977783;28;20183;-68
2023/02/22 08:41:43;;;;;;;30.47;21.27;;;;;;;;;;4972998;28;20675;-68
2023/02/22 08:44:09;;;;;;;31.20;20.47;;;;;;;;;;4975726;28;20205;-68
2023/02/22 08:46:34;;;;;;;31.70;22.50;;;;;;;;;;4974557;28;20660;-68
2023/02/22 08:48:59;;;;;;;31.80;21.80;;;;;;;;;;4977273;28;20213;-68
2023/02/22 08:51:25;;;;;;;31.00;22.07;;;;;;;;;;4973441;28;20269;-68
2023/02/22 08:53:50;;;;;;;36.27;25.40;;;;;;;;;;4981223;28;20287;-68
2023/02/22 08:56:15;;;;;;;33.43;23.53;;;;;;;;;;4980043;28;20213;-68
2023/02/22 08:58:41;;;;;;;34.80;24.93;;;;;;;;;;4973054;28;20190;-68
2023/02/22 09:01:06;;;;;;;36.50;25.60;;;;;;;;;;4989200;28;20182;-68
2023/02/22 09:03:31;;;;;;;38.63;25.90;;;;;;;;;;4976005;28;20602;-68
2023/02/22 09:05:58;;;;;;;39.83;26.77;;;;;;;;;;4971594;28;20209;-68
2023/02/22 09:08:23;;;;;;;39.70;25.60;;;;;;;;;;4963115;28;20220;-68
2023/02/22 09:10:49;;;;;;;39.00;26.80;;;;;;;;;;4972699;28;20437;-68
2023/02/22 09:13:14;;;;;;;39.90;26.20;;;;;;;;;;4974705;28;20185;-68
2023/02/22 09:15:39;;;;;;;40.10;26.10;;;;;;;;;;4977008;28;20625;-68
2023/02/22 09:18:07;;;;;;;36.47;25.17;;;;;;;;;;4971030;28;20182;-68
2023/02/22 09:20:34;;;;;;;37.13;25.00;;;;;;;;;;4980918;28;20656;-68
2023/02/22 09:23:01;;;;;;;37.27;25.73;;;;;;;;;;4978930;28;21029;-68
2023/02/22 09:25:27;;;;;;;37.57;25.30;;;;;;;;;;4971783;28;20448;-68
2023/02/22 09:27:52;;;;;;;39.13;25.53;;;;;;;;;;4984826;28;20489;-68
2023/02/22 09:30:22;;;;;;;37.97;24.37;;;;;;;;;;4971778;28;20189;-68
2023/02/22 09:32:47;;;;;;;39.30;26.17;;;;;;;;;;4983571;28;20186;-68
2023/02/22 09:35:12;;;;;;;34.57;23.63;;;;;;;;;;4976775;28;20476;-69
2023/02/22 09:37:38;;;;;;;33.47;22.57;;;;;;;;;;4967366;28;20692;-67
2023/02/22 09:40:08;;;;;;;33.37;23.73;;;;;;;;;;4977666;28;20182;-68
2023/02/22 09:42:38;;;;;;;33.47;23.30;;;;;;;;;;4976426;28;20178;-68
2023/02/22 09:45:12;;;;;;;33.43;23.60;;;;;;;;;;4976211;28;20945;-68
2023/02/22 09:47:39;;;;;;;32.57;22.80;;;;;;;;;;4979307;28;20497;-69
2023/02/22 09:50:16;;;;;;;32.53;22.73;;;;;;;;;;4977981;28;20970;-68
2023/02/22 09:52:59;;;;;;;33.00;23.63;;;;;;;;;;4975482;28;20470;-68
2023/02/22 09:55:33;;;;;;;28.73;21.53;;;;;;;;;;4977866;28;20861;-68
2023/02/22 09:58:00;;;;;;;31.00;22.60;;;;;;;;;;4976701;28;20536;-68
2023/02/22 10:00:36;;;;;;;32.20;21.40;;;;;;;;;;4981486;28;20432;-69
2023/02/22 10:03:05;;;;;;;34.07;23.50;;;;;;;;;;4973389;28;20524;-69
2023/02/22 10:05:41;;;;;;;29.30;21.20;;;;;;;;;;4983960;28;20464;-68
2023/02/22 10:08:17;;;;;;;28.70;19.77;;;;;;;;;;4977726;28;20475;-69
2023/02/22 10:10:51;;;;;;;28.17;19.67;;;;;;;;;;4978130;28;20436;-69
2023/02/22 10:13:18;;;;;;;31.60;22.00;;;;;;;;;;4974753;28;20996;-69
2023/02/22 10:15:50;;;;;;;31.70;20.77;;;;;;;;;;4976680;28;20449;-69
2023/02/22 10:18:21;;;;;;;28.37;19.43;;;;;;;;;;4976906;28;20280;-69
2023/02/22 10:20:55;;;;;;;31.73;20.73;;;;;;;;;;4976937;28;20445;-68
2023/02/22 10:23:29;;;;;;;32.40;21.70;;;;;;;;;;4977305;28;20966;-68
2023/02/22 10:25:58;;;;;;;35.17;23.27;;;;;;;;;;4978059;28;20995;-68
2023/02/22 10:28:25;;;;;;;37.20;23.27;;;;;;;;;;4978713;28;21481;-68
2023/02/22 10:30:57;;;;;;;32.50;22.70;;;;;;;;;;4980845;28;20436;-69
2023/02/22 10:33:25;;;;;;;35.03;23.87;;;;;;;;;;4975242;28;20830;-68
2023/02/22 10:35:51;;;;;;;30.97;21.83;;;;;;;;;;4972605;28;20461;-68
2023/02/22 10:38:16;;;;;;;36.60;24.70;;;;;;;;;;4973665;28;20547;-68
2023/02/22 10:40:54;;;;;;;30.37;21.30;;;;;;;;;;4978014;28;22179;-68
2023/02/22 10:43:19;;;;;;;33.10;22.87;;;;;;;;;;4967987;28;20194;-68
2023/02/22 10:45:44;;;;;;;34.07;22.17;;;;;;;;;;4981213;28;20468;-68
2023/02/22 10:48:13;;;;;;;37.73;25.03;;;;;;;;;;4977515;28;20210;-69
2023/02/22 10:50:40;;;;;;;36.07;24.90;;;;;;;;;;4980412;28;20180;-68
2023/02/22 10:53:06;;;;;;;36.73;23.57;;;;;;;;;;4975464;28;20531;-68
2023/02/22 10:55:31;;;;;;;38.80;25.80;;;;;;;;;;4966882;28;20530;-67
2023/02/22 10:58:07;;;;;;;33.77;22.80;;;;;;;;;;4974321;28;20190;-67
2023/02/22 11:00:36;;;;;;;37.63;23.87;;;;;;;;;;4975683;28;20714;-68
2023/02/22 11:03:22;;;;;;;35.73;23.80;;;;;;;;;;4975270;28;20444;-68
2023/02/22 11:05:48;;;;;;;35.13;22.67;;;;;;;;;;4972653;28;20461;-68
2023/02/22 11:08:19;;;;;;;39.50;24.50;;;;;;;;;;4975791;28;20465;-68
2023/02/22 11:10:47;;;;;;;33.50;23.10;;;;;;;;;;4977842;28;20515;-68
2023/02/22 11:13:35;;;;;;;36.30;24.30;;;;;;;;;;4982167;28;20963;-68
2023/02/22 11:16:15;;;;;;;35.33;23.00;;;;;;;;;;4983477;28;20467;-68
2023/02/22 11:18:40;;;;;;;35.63;22.00;;;;;;;;;;4970075;28;20456;-68
2023/02/22 11:21:09;;;;;;;36.10;23.50;;;;;;;;;;4981167;28;20828;-68
2023/02/22 11:23:35;;;;;;;34.07;21.70;;;;;;;;;;4979135;28;20563;-68
2023/02/22 11:26:02;;;;;;;35.43;23.53;;;;;;;;;;4976597;28;20468;-68
2023/02/22 11:28:31;;;;;;;33.87;23.83;;;;;;;;;;4978942;28;20973;-70
2023/02/22 11:31:07;;;;;;;32.67;22.40;;;;;;;;;;4984272;28;20433;-68
2023/02/22 11:33:32;;;;;;;31.87;21.80;;;;;;;;;;4980467;28;20427;-68
2023/02/22 11:35:59;;;;;;;33.10;21.77;;;;;;;;;;4992514;28;20454;-68
2023/02/22 11:38:25;;;;;;;33.60;22.03;;;;;;;;;;4977985;28;20273;-67
2023/02/22 11:41:09;;;;;;;32.10;22.53;;;;;;;;;;4979705;28;20531;-67
2023/02/22 11:43:34;;;;;;;42.27;24.73;;;;;;;;;;4978754;28;20189;-67
2023/02/22 11:46:03;;;;;;;37.27;23.10;;;;;;;;;;4979195;28;20472;-67
2023/02/22 11:48:31;;;;;;;34.87;23.60;;;;;;;;;;4973500;28;20249;-67
2023/02/22 11:51:10;;;;;;;35.33;23.10;;;;;;;;;;4967391;28;21097;-68
2023/02/22 11:53:45;;;;;;;35.13;23.30;;;;;;;;;;4970715;28;20570;-68
2023/02/22 11:56:13;;;;;;;33.67;23.60;;;;;;;;;;4978335;28;20541;-68
2023/02/22 11:58:39;;;;;;;37.67;25.60;;;;;;;;;;4980499;28;20449;-68
2023/02/22 12:01:10;;;;;;;36.67;24.40;;;;;;;;;;4980640;28;20935;-68
2023/02/22 12:03:39;;;;;;;38.50;25.03;;;;;;;;;;4978691;28;20194;-69
2023/02/22 12:06:18;;;;;;;41.00;26.80;;;;;;;;;;4978620;28;20476;-69
2023/02/22 12:09:02;;;;;;;37.87;26.37;;;;;;;;;;4983639;28;20988;-67
2023/02/22 12:11:34;;;;;;;48.57;30.63;;;;;;;;;;4974267;28;20511;-68
2023/02/22 12:14:06;;;;;;;46.13;28.77;;;;;;;;;;4977561;28;20436;-68
2023/02/22 12:16:34;;;;;;;40.33;27.20;;;;;;;;;;4974408;28;20475;-68
2023/02/22 12:18:59;;;;;;;45.87;28.30;;;;;;;;;;4978651;28;20483;-67
2023/02/22 12:21:25;;;;;;;40.30;27.07;;;;;;;;;;4987903;28;20441;-68
2023/02/22 12:24:06;;;;;;;46.33;28.77;;;;;;;;;;4970160;28;20190;-68
2023/02/22 12:26:42;;;;;;;45.23;28.20;;;;;;;;;;4972747;28;20866;-68
2023/02/22 12:29:07;;;;;;;46.67;29.67;;;;;;;;;;4981234;28;20525;-68
2023/02/22 12:31:39;;;;;;;44.37;28.53;;;;;;;;;;4980376;28;20472;-68
2023/02/22 12:34:26;;;;;;;50.40;31.47;;;;;;;;;;4971862;28;20658;-68
2023/02/22 12:36:55;;;;;;;41.40;28.33;;;;;;;;;;4961782;28;20448;-68
2023/02/22 12:39:24;;;;;;;47.93;29.53;;;;;;;;;;4972880;28;20837;-68
2023/02/22 12:41:53;;;;;;;45.93;28.83;;;;;;;;;;4978471;28;20442;-67
2023/02/22 12:44:21;;;;;;;50.17;33.27;;;;;;;;;;4978601;28;20812;-68
2023/02/22 12:46:48;;;;;;;48.40;32.87;;;;;;;;;;4978363;28;20420;-68
2023/02/22 12:49:18;;;;;;;54.80;33.27;;;;;;;;;;4974933;28;20966;-68
2023/02/22 12:51:46;;;;;;;52.37;31.00;;;;;;;;;;4972701;28;20472;-68
2023/02/22 12:54:20;;;;;;;48.07;31.10;;;;;;;;;;4979599;28;20593;-70
2023/02/22 12:56:52;;;;;;;53.67;33.60;;;;;;;;;;4968019;28;20440;-69
2023/02/22 12:59:18;;;;;;;48.20;31.73;;;;;;;;;;4973734;28;20438;-69
2023/02/22 13:01:45;;;;;;;49.17;31.60;;;;;;;;;;4991339;28;20492;-69
2023/02/22 13:04:15;;;;;;;53.23;31.07;;;;;;;;;;4974990;28;20441;-69
2023/02/22 13:06:48;;;;;;;55.57;34.70;;;;;;;;;;4969264;28;20448;-69
2023/02/22 13:09:40;;;;;;;53.37;33.70;;;;;;;;;;4977174;28;20534;-68
2023/02/22 13:12:08;;;;;;;56.90;34.77;;;;;;;;;;4981703;28;20459;-69
2023/02/22 13:14:36;;;;;;;54.73;32.77;;;;;;;;;;4975150;28;20458;-68
2023/02/22 13:17:12;;;;;;;55.07;34.67;;;;;;;;;;4970629;28;20465;-68
2023/02/22 13:19:47;;;;;;;58.93;35.13;;;;;;;;;;4981715;28;20514;-69
2023/02/22 13:22:18;;;;;;;59.27;35.30;;;;;;;;;;4976434;28;20483;-68
2023/02/22 13:25:02;;;;;;;55.47;34.40;;;;;;;;;;4982982;28;20838;-68
2023/02/22 13:27:27;;;;;;;52.80;33.30;;;;;;;;;;4971813;28;20946;-68
2023/02/22 13:29:57;;;;;;;58.30;35.20;;;;;;;;;;4972976;28;20560;-68
2023/02/22 13:32:26;;;;;;;47.40;31.23;;;;;;;;;;4974030;28;20217;-68
2023/02/22 13:34:59;;;;;;;54.40;33.63;;;;;;;;;;4979056;28;22414;-69
2023/02/22 13:37:34;;;;;;;54.57;33.70;;;;;;;;;;4979577;28;20456;-68
2023/02/22 13:40:02;;;;;;;50.17;32.40;;;;;;;;;;4983115;28;20464;-68
2023/02/22 13:42:36;;;;;;;58.83;33.17;;;;;;;;;;4984338;28;20461;-68
2023/02/22 13:45:17;;;;;;;48.83;32.33;;;;;;;;;;4983001;28;20507;-69
2023/02/22 13:47:42;;;;;;;52.00;32.17;;;;;;;;;;4980260;28;20468;-69
2023/02/22 13:50:20;;;;;;;55.77;34.47;;;;;;;;;;4977044;28;20965;-68
2023/02/22 13:52:47;;;;;;;60.00;34.13;;;;;;;;;;4977324;28;20188;-69
2023/02/22 13:55:22;;;;;;;54.20;35.30;;;;;;;;;;4977157;28;20877;-69
2023/02/22 13:57:50;;;;;;;53.97;33.97;;;;;;;;;;4978796;28;20505;-69
2023/02/22 14:00:19;;;;;;;55.67;33.67;;;;;;;;;;4980200;28;20520;-69
2023/02/22 14:03:07;;;;;;;52.47;34.20;;;;;;;;;;4983356;28;20820;-69
2023/02/22 14:05:45;;;;;;;57.30;35.70;;;;;;;;;;4980798;28;20467;-69
2023/02/22 14:08:20;;;;;;;50.57;32.50;;;;;;;;;;4984161;28;20500;-69
2023/02/22 14:10:48;;;;;;;58.57;36.83;;;;;;;;;;4978427;28;20555;-69
2023/02/22 14:13:16;;;;;;;53.90;35.50;;;;;;;;;;4976078;28;20436;-69
2023/02/22 14:15:56;;;;;;;54.37;34.83;;;;;;;;;;4981364;28;20464;-68
2023/02/22 14:18:22;;;;;;;56.57;35.80;;;;;;;;;;4973801;28;20432;-68
2023/02/22 14:21:03;;;;;;;57.17;35.77;;;;;;;;;;4982635;28;20437;-68
2023/02/22 14:23:33;;;;;;;59.77;38.10;;;;;;;;;;4981312;28;20550;-69